createdAt,value
2019-04-04T00:01:41.442Z,56.30
2019-04-04T00:04:07.763Z,56.60
2019-04-04T00:06:34.076Z,56.70
2019-04-04T00:12:50.627Z,56.80
2019-04-04T00:15:16.950Z,56.80
2019-04-04T00:17:43.231Z,57.20
2019-04-04T00:20:09.569Z,57.10
2019-04-04T00:22:35.900Z,57.30
2019-04-04T00:25:03.021Z,57.20
2019-04-04T00:27:29.428Z,57.20
2019-04-04T00:29:55.839Z,57.00
2019-04-04T00:32:22.271Z,57.40
2019-04-04T00:34:48.580Z,56.90
2019-04-04T00:37:14.892Z,56.90
2019-04-04T00:39:41.190Z,57.00
2019-04-04T00:42:07.499Z,57.20
2019-04-04T00:44:34.785Z,57.10
2019-04-04T02:41:03.012Z,57.20
2019-04-04T02:43:29.344Z,57.10
2019-04-04T02:45:55.901Z,56.60
2019-04-04T02:48:24.514Z,57.00
2019-04-04T02:50:50.536Z,56.60
2019-04-04T02:53:20.311Z,56.60
2019-04-04T02:55:44.940Z,56.40
2019-04-04T02:58:14.012Z,56.60
2019-04-04T03:00:39.380Z,56.80
2019-04-04T03:03:09.264Z,56.80
2019-04-04T03:05:43.637Z,56.40
2019-04-04T03:08:20.597Z,57.10
2019-04-04T03:10:49.251Z,56.60
2019-04-04T03:13:32.392Z,56.50
2019-04-04T03:15:59.451Z,56.50
2019-04-04T03:18:25.800Z,56.20
2019-04-04T03:20:59.848Z,54.90
2019-04-04T03:23:26.171Z,54.30
2019-04-04T03:25:52.511Z,55.20
2019-04-04T03:28:19.161Z,55.50
2019-04-04T03:30:52.598Z,55.50
2019-04-04T03:33:13.892Z,55.30
2019-04-04T03:35:40.717Z,55.10
2019-04-04T03:38:07.120Z,54.90
2019-04-04T03:40:33.589Z,55.20
2019-04-04T03:43:00.018Z,55.40
2019-04-04T03:45:27.548Z,56.00
2019-04-04T03:47:54.051Z,56.60
2019-04-04T03:50:20.357Z,56.00
2019-04-04T03:52:46.681Z,56.50
2019-04-04T03:55:13.087Z,56.40
2019-04-04T03:57:39.600Z,56.50
2019-04-04T04:00:07.282Z,56.80
2019-04-04T04:02:33.861Z,56.80
2019-04-04T04:05:08.486Z,56.70
2019-04-04T04:07:42.330Z,56.90
2019-04-04T04:10:14.955Z,57.00
2019-04-04T04:12:47.637Z,57.00
2019-04-04T04:15:22.727Z,57.00
2019-04-04T04:17:55.031Z,57.10
2019-04-04T04:20:26.222Z,57.30
2019-04-04T04:22:58.837Z,57.40
2019-04-04T04:25:36.548Z,57.30
2019-04-04T04:28:10.328Z,57.40
2019-04-04T04:30:50.661Z,57.60
2019-04-04T04:33:20.793Z,57.60
2019-04-04T04:35:55.859Z,57.50
2019-04-04T04:38:28.728Z,57.70
2019-04-04T04:41:07.089Z,57.80
2019-04-04T04:43:33.734Z,57.80
2019-04-04T04:46:05.186Z,57.50
2019-04-04T04:48:39.843Z,57.50
2019-04-04T04:51:12.077Z,57.50
2019-04-04T04:53:44.354Z,57.80
2019-04-04T04:56:19.139Z,57.50
2019-04-04T04:58:50.466Z,57.60
2019-04-04T05:01:21.367Z,57.50
2019-04-04T05:03:50.556Z,57.30
2019-04-04T05:06:15.780Z,57.30
2019-04-04T05:08:43.995Z,57.40
2019-04-04T05:11:10.289Z,57.20
2019-04-04T05:13:36.704Z,57.50
2019-04-04T05:16:05.207Z,57.40
2019-04-04T05:18:31.867Z,57.00
2019-04-04T05:21:01.461Z,57.20
2019-04-04T05:23:26.479Z,57.30
2019-04-04T05:25:54.315Z,57.20
2019-04-04T05:28:20.919Z,57.20
2019-04-04T05:30:47.884Z,57.00
2019-04-04T05:33:14.646Z,57.10
2019-04-04T05:35:41.160Z,56.80
2019-04-04T05:38:07.917Z,57.00
2019-04-04T05:40:34.822Z,58.60
2019-04-04T05:43:03.909Z,58.10
2019-04-04T05:45:29.618Z,57.10
2019-04-04T05:47:58.297Z,56.80
2019-04-04T05:50:24.036Z,56.70
2019-04-04T05:52:50.445Z,56.90
2019-04-04T05:55:16.942Z,56.90
2019-04-04T05:57:43.355Z,57.00
2019-04-04T06:00:11.589Z,57.10
2019-04-04T06:02:37.983Z,57.20
2019-04-04T06:05:05.092Z,57.20
2019-04-04T06:07:31.423Z,57.30
2019-04-04T06:09:57.726Z,57.10
2019-04-04T06:12:25.181Z,57.10
2019-04-04T06:14:52.092Z,57.00
2019-04-04T06:17:18.595Z,57.80
2019-04-04T06:19:45.067Z,57.00
2019-04-04T06:22:11.747Z,57.00
2019-04-04T06:24:38.067Z,56.90
2019-04-04T06:27:04.484Z,56.70
2019-04-04T06:29:30.830Z,56.40
2019-04-04T06:31:59.882Z,56.30
2019-04-04T06:34:25.458Z,56.20
2019-04-04T06:36:52.268Z,55.90
2019-04-04T06:39:18.575Z,56.00
2019-04-04T06:41:44.926Z,56.00
2019-04-04T06:44:13.021Z,56.00
2019-04-04T06:46:39.606Z,56.00
2019-04-04T06:49:05.931Z,55.90
2019-04-04T06:51:32.877Z,55.90
2019-04-04T06:53:59.710Z,56.20
2019-04-04T06:56:26.404Z,56.20
2019-04-04T06:58:52.815Z,56.20
2019-04-04T07:01:21.895Z,56.10
2019-04-04T07:03:47.342Z,56.00
2019-04-04T07:06:13.993Z,56.00
2019-04-04T07:08:40.511Z,56.10
2019-04-04T07:11:20.352Z,56.20
2019-04-04T07:13:42.183Z,56.20
2019-04-04T07:16:06.821Z,56.20
2019-04-04T07:18:31.183Z,56.20
2019-04-04T07:20:57.718Z,56.10
2019-04-04T07:23:27.421Z,56.10
2019-04-04T07:25:53.572Z,56.00
2019-04-04T07:28:23.085Z,56.10
2019-04-04T07:30:54.359Z,56.00
2019-04-04T07:33:21.329Z,56.20
2019-04-04T07:35:48.916Z,56.20
2019-04-04T07:38:15.736Z,56.10
2019-04-04T07:40:42.049Z,56.20
2019-04-04T07:43:08.752Z,56.10
2019-04-04T07:45:35.592Z,56.10
2019-04-04T07:48:02.089Z,56.20
2019-04-04T07:50:28.524Z,56.20
2019-04-04T07:52:55.018Z,56.20
2019-04-04T07:55:21.580Z,56.20
2019-04-04T07:57:50.860Z,56.20
2019-04-04T08:00:16.101Z,56.20
2019-04-04T08:02:42.529Z,56.20
2019-04-04T08:05:08.928Z,56.10
2019-04-04T08:07:35.264Z,56.30
2019-04-04T08:10:03.171Z,56.10
2019-04-04T08:12:29.475Z,56.00
2019-04-04T08:14:55.921Z,56.00
2019-04-04T08:17:22.454Z,56.10
2019-04-04T08:19:59.137Z,55.90
2019-04-04T08:22:16.978Z,55.80
2019-04-04T08:24:43.808Z,55.80
2019-04-04T08:27:10.120Z,55.60
2019-04-04T08:29:36.521Z,55.40
2019-04-04T08:32:02.951Z,55.10
2019-04-04T08:34:29.348Z,54.70
2019-04-04T08:36:55.865Z,55.30
2019-04-04T08:39:22.197Z,55.20
2019-04-04T08:41:48.623Z,55.20
2019-04-04T08:44:15.055Z,55.30
2019-04-04T08:46:41.529Z,55.60
2019-04-04T08:49:07.855Z,55.70
2019-04-04T08:51:34.152Z,54.70
2019-04-04T08:54:00.460Z,54.80
2019-04-04T08:56:26.891Z,55.10
2019-04-04T08:58:53.299Z,54.60
2019-04-04T09:01:19.639Z,55.50
2019-04-04T09:03:45.942Z,54.80
2019-04-04T09:06:12.259Z,55.00
2019-04-04T09:08:38.587Z,55.10
2019-04-04T09:11:04.984Z,55.10
2019-04-04T09:13:31.440Z,55.10
2019-04-04T09:16:06.187Z,55.10
2019-04-04T09:18:38.884Z,55.30
2019-04-04T09:21:05.304Z,55.50
2019-04-04T09:23:31.619Z,55.10
2019-04-04T09:26:05.367Z,55.00
2019-04-04T09:28:26.298Z,55.10
2019-04-04T09:30:52.723Z,55.20
2019-04-04T09:33:20.990Z,55.10
2019-04-04T09:35:47.838Z,55.10
2019-04-04T09:38:14.260Z,55.10
2019-04-04T09:40:41.103Z,55.10
2019-04-04T09:43:07.556Z,55.20
2019-04-04T09:45:33.930Z,55.20
2019-04-04T09:48:00.241Z,54.90
2019-04-04T09:50:27.293Z,55.40
2019-04-04T09:52:53.564Z,54.80
2019-04-04T09:55:20.225Z,54.50
2019-04-04T09:57:46.808Z,54.30
2019-04-04T10:00:14.557Z,54.20
2019-04-04T10:02:41.186Z,53.90
2019-04-04T10:05:07.728Z,53.70
2019-04-04T10:07:34.313Z,53.40
2019-04-04T10:10:00.940Z,53.50
2019-04-04T10:12:29.534Z,53.80
2019-04-04T10:14:56.137Z,54.30
2019-04-04T10:17:22.588Z,54.60
2019-04-04T10:19:49.587Z,54.60
2019-04-04T10:22:15.893Z,54.90
2019-04-04T10:24:42.436Z,55.00
2019-04-04T10:27:08.846Z,55.90
2019-04-04T10:29:36.267Z,55.90
2019-04-04T10:32:02.690Z,55.80
2019-04-04T10:34:29.004Z,55.70
2019-04-04T10:36:55.339Z,55.50
2019-04-04T10:39:28.883Z,55.40
2019-04-04T10:41:49.757Z,55.50
2019-04-04T10:44:16.200Z,55.50
2019-04-04T10:46:42.639Z,55.50
2019-04-04T10:49:08.963Z,55.20
2019-04-04T10:51:35.294Z,55.50
2019-04-04T10:54:01.713Z,55.40
2019-04-04T10:56:28.043Z,55.40
2019-04-04T10:58:54.463Z,55.50
2019-04-04T11:01:21.109Z,55.70
2019-04-04T11:03:47.530Z,56.00
2019-04-04T11:06:13.931Z,55.70
2019-04-04T11:08:40.255Z,55.30
2019-04-04T11:11:07.039Z,55.10
2019-04-04T11:13:34.115Z,54.80
2019-04-04T11:16:00.512Z,54.90
2019-04-04T11:18:26.918Z,54.80
2019-04-04T11:20:53.241Z,55.00
2019-04-04T11:23:19.543Z,55.00
2019-04-04T11:25:45.977Z,55.10
2019-04-04T11:28:12.391Z,54.90
2019-04-04T11:30:40.484Z,55.10
2019-04-04T11:33:06.799Z,55.10
2019-04-04T11:35:33.353Z,55.00
2019-04-04T11:37:59.673Z,55.20
2019-04-04T11:40:26.079Z,54.80
2019-04-04T11:42:52.487Z,55.00
2019-04-04T11:45:19.003Z,54.80
2019-04-04T11:47:45.409Z,55.00
2019-04-04T11:50:11.845Z,54.90
2019-04-04T11:52:38.368Z,54.80
2019-04-04T11:55:04.793Z,54.80
2019-04-04T11:57:32.029Z,54.80
2019-04-04T11:59:58.364Z,54.70
2019-04-04T12:02:26.271Z,54.80
2019-04-04T12:04:52.681Z,54.80
2019-04-04T12:07:18.989Z,54.70
2019-04-04T12:09:45.331Z,54.70
2019-04-04T12:12:11.644Z,54.60
2019-04-04T12:14:37.965Z,54.50
2019-04-04T12:17:04.708Z,54.40
2019-04-04T12:19:31.099Z,54.50
2019-04-04T12:21:57.470Z,54.30
2019-04-04T12:24:23.753Z,54.30
2019-04-04T12:26:50.294Z,54.20
2019-04-04T12:29:16.787Z,54.20
2019-04-04T12:31:43.564Z,54.10
2019-04-04T12:34:10.106Z,53.90
2019-04-04T12:36:36.455Z,53.90
2019-04-04T12:39:04.943Z,53.90
2019-04-04T12:41:32.023Z,54.00
2019-04-04T12:43:58.869Z,53.80
2019-04-04T12:46:25.331Z,53.80
2019-04-04T12:48:51.639Z,53.70
2019-04-04T12:51:17.985Z,53.70
2019-04-04T12:53:44.401Z,53.70
2019-04-04T12:56:10.817Z,53.60
2019-04-04T12:58:37.153Z,53.90
2019-04-04T13:01:03.560Z,54.00
2019-04-04T13:03:29.993Z,54.20
2019-04-04T13:05:56.648Z,54.30
2019-04-04T13:08:23.185Z,53.70
2019-04-04T13:10:49.499Z,50.20
2019-04-04T13:13:15.801Z,43.50
2019-04-04T13:15:42.328Z,42.90
2019-04-04T13:18:08.652Z,47.90
2019-04-04T13:20:35.059Z,48.70
2019-04-04T13:23:01.574Z,48.90
2019-04-04T13:25:27.911Z,49.40
2019-04-04T13:27:54.237Z,49.70
2019-04-04T13:30:20.523Z,49.80
2019-04-04T13:32:47.254Z,50.30
2019-04-04T13:35:13.775Z,50.60
2019-04-04T13:37:40.219Z,50.80
2019-04-04T13:40:06.642Z,51.00
2019-04-04T13:42:33.055Z,51.30
2019-04-04T13:44:59.504Z,51.50
2019-04-04T13:47:25.847Z,51.60
2019-04-04T13:49:52.159Z,51.00
2019-04-04T13:52:18.595Z,51.20
2019-04-04T13:54:44.900Z,50.60
2019-04-04T13:57:11.347Z,50.80
2019-04-04T13:59:37.670Z,50.90
2019-04-04T14:02:03.976Z,50.90
2019-04-04T14:04:30.405Z,51.00
2019-04-04T14:06:56.702Z,51.00
2019-04-04T14:09:23.003Z,51.00
2019-04-04T14:11:49.432Z,51.10
2019-04-04T14:14:15.837Z,51.20
2019-04-04T14:16:46.194Z,51.20
2019-04-04T14:19:12.719Z,51.40
2019-04-04T14:21:39.011Z,51.20
2019-04-04T14:24:12.816Z,51.30
2019-04-04T14:26:33.443Z,40.80
2019-04-04T14:29:03.766Z,34.80
2019-04-04T14:31:28.107Z,33.00
2019-04-04T14:33:54.662Z,34.30
2019-04-04T14:36:21.023Z,32.70
2019-04-04T14:38:47.396Z,34.30
2019-04-04T14:41:13.903Z,36.80
2019-04-04T14:43:40.203Z,37.70
2019-04-04T14:46:06.782Z,38.60
2019-04-04T14:48:33.268Z,39.30
2019-04-04T14:50:59.534Z,40.00
2019-04-04T14:53:26.233Z,32.10
2019-04-04T14:55:53.290Z,32.90
2019-04-04T14:58:19.592Z,35.20
2019-04-04T15:00:45.930Z,37.40
2019-04-04T15:03:12.228Z,38.50
2019-04-04T15:05:38.759Z,39.10
2019-04-04T15:08:05.185Z,39.30
2019-04-04T15:10:31.486Z,39.90
2019-04-04T15:12:57.799Z,40.10
2019-04-04T15:15:26.302Z,40.60
2019-04-04T15:17:52.737Z,40.90
2019-04-04T15:20:19.059Z,41.30
2019-04-04T15:22:51.356Z,41.50
2019-04-04T15:25:17.751Z,42.20
2019-04-04T15:27:44.180Z,42.60
2019-04-04T15:30:10.519Z,43.10
2019-04-04T15:32:36.819Z,43.40
2019-04-04T15:35:04.487Z,43.40
2019-04-04T15:37:30.904Z,43.60
2019-04-04T15:39:57.214Z,44.00
2019-04-04T15:42:23.665Z,43.90
2019-04-04T15:44:50.073Z,44.20
2019-04-04T15:47:16.692Z,44.50
2019-04-04T15:49:43.112Z,44.60
2019-04-04T15:52:09.522Z,44.80
2019-04-04T15:54:35.948Z,45.10
2019-04-04T15:57:02.668Z,45.10
2019-04-04T15:59:28.975Z,45.10
2019-04-04T16:01:55.286Z,45.30
2019-04-04T16:04:21.587Z,45.50
2019-04-04T16:06:48.119Z,45.60
2019-04-04T16:09:14.527Z,45.70
2019-04-04T16:11:49.220Z,46.00
2019-04-04T16:14:09.255Z,46.00
2019-04-04T16:16:35.556Z,46.10
2019-04-04T16:19:01.891Z,46.20
2019-04-04T16:21:28.304Z,46.30
2019-04-04T16:23:54.596Z,46.30
2019-04-04T16:26:20.917Z,46.40
2019-04-04T16:28:47.540Z,46.50
2019-04-04T16:31:13.876Z,46.60
2019-04-04T16:33:40.167Z,46.70
2019-04-04T16:36:06.584Z,46.80
2019-04-04T16:38:32.901Z,46.80
2019-04-04T16:41:00.473Z,46.90
2019-04-04T16:43:27.026Z,47.10
2019-04-04T16:45:53.439Z,47.10
2019-04-04T16:48:19.755Z,47.30
2019-04-04T16:50:46.308Z,47.50
2019-04-04T16:53:12.790Z,47.40
2019-04-04T16:55:39.233Z,48.00
2019-04-04T16:58:05.643Z,47.50
2019-04-04T17:00:32.166Z,47.50
2019-04-04T17:02:58.472Z,47.30
2019-04-04T17:05:24.775Z,46.50
2019-04-04T17:07:51.184Z,46.80
2019-04-04T17:10:17.519Z,46.30
2019-04-04T17:12:43.936Z,46.60
2019-04-04T17:15:10.232Z,46.30
2019-04-04T17:17:36.674Z,46.30
2019-04-04T17:20:06.131Z,46.40
2019-04-04T17:22:32.645Z,46.50
2019-04-04T17:24:58.947Z,46.60
2019-04-04T17:27:25.353Z,46.70
2019-04-04T17:29:52.254Z,46.80
2019-04-04T17:32:19.155Z,47.00
2019-04-04T17:34:45.797Z,47.60
2019-04-04T17:37:12.248Z,48.00
2019-04-04T17:39:38.805Z,48.20
2019-04-04T17:42:05.749Z,48.40
2019-04-04T17:44:33.241Z,48.60
2019-04-04T17:47:03.120Z,48.60
2019-04-04T17:49:29.615Z,48.60
2019-04-04T17:51:56.021Z,48.50
2019-04-04T17:54:22.356Z,48.70
2019-04-04T17:56:49.069Z,48.70
2019-04-04T17:59:15.808Z,49.00
2019-04-04T18:01:42.118Z,48.90
2019-04-04T18:04:08.528Z,49.40
2019-04-04T18:06:34.874Z,49.40
2019-04-04T18:09:01.195Z,49.50
2019-04-04T18:11:27.518Z,49.60
2019-04-04T18:13:54.027Z,49.50
2019-04-04T18:16:20.528Z,50.20
2019-04-04T18:18:46.852Z,50.50
2019-04-04T18:21:13.197Z,50.50
2019-04-04T18:23:39.502Z,50.40
2019-04-04T18:26:05.939Z,50.50
2019-04-04T18:28:32.344Z,50.30
2019-04-04T18:30:58.674Z,50.10
2019-04-04T18:33:25.206Z,50.20
2019-04-04T18:35:52.048Z,50.60
2019-04-04T18:38:19.441Z,50.80
2019-04-04T18:40:45.947Z,50.70
2019-04-04T18:43:12.303Z,51.70
2019-04-04T18:45:38.623Z,51.50
2019-04-04T18:48:05.564Z,51.80
2019-04-04T18:50:32.121Z,51.80
2019-04-04T18:52:58.516Z,52.10
2019-04-04T18:55:24.955Z,52.30
2019-04-04T18:57:51.263Z,53.30
2019-04-04T19:00:17.781Z,52.80
2019-04-04T19:02:44.424Z,52.90
2019-04-04T19:05:11.043Z,53.50
2019-04-04T19:07:39.681Z,53.50
2019-04-04T19:10:07.669Z,53.40
2019-04-04T19:12:34.103Z,53.70
2019-04-04T19:15:00.552Z,53.60
2019-04-04T19:17:26.887Z,53.70
2019-04-04T19:19:53.196Z,53.40
2019-04-04T19:22:19.727Z,53.60
2019-04-04T19:24:46.037Z,53.30
2019-04-04T19:27:12.387Z,53.40
2019-04-04T19:29:38.796Z,53.40
2019-04-04T19:32:05.635Z,53.50
2019-04-04T19:34:31.972Z,53.40
2019-04-04T19:36:58.282Z,53.30
2019-04-04T19:39:24.635Z,53.30
2019-04-04T19:41:55.739Z,52.50
2019-04-04T19:44:22.254Z,53.10
2019-04-04T19:46:48.569Z,53.10
2019-04-04T19:49:15.070Z,52.90
2019-04-04T19:51:41.526Z,52.90
2019-04-04T19:54:07.939Z,53.00
2019-04-04T19:56:34.246Z,52.90
2019-04-04T19:59:00.621Z,53.00
2019-04-04T20:01:26.883Z,52.80
2019-04-04T20:03:53.668Z,52.80
2019-04-04T20:06:20.064Z,52.80
2019-04-04T20:08:46.364Z,52.80
2019-04-04T20:11:12.676Z,52.60
2019-04-04T20:13:38.995Z,52.80
2019-04-04T20:16:05.452Z,52.80
2019-04-04T20:18:31.774Z,52.60
2019-04-04T20:20:58.072Z,52.60
2019-04-04T20:23:24.533Z,52.60
2019-04-04T20:25:50.812Z,52.90
2019-04-04T20:28:17.115Z,52.60
2019-04-04T20:30:43.449Z,52.40
2019-04-04T20:33:09.756Z,52.40
2019-04-04T20:35:36.055Z,52.50
2019-04-04T20:38:02.710Z,52.40
2019-04-04T20:40:29.011Z,53.10
2019-04-04T20:42:55.443Z,52.30
2019-04-04T20:45:21.849Z,52.20
2019-04-04T20:47:48.239Z,52.30
2019-04-04T20:50:14.555Z,52.40
2019-04-04T20:52:40.963Z,52.30
2019-04-04T20:55:07.535Z,52.30
2019-04-04T20:57:33.815Z,52.40
2019-04-04T21:00:00.121Z,52.30
2019-04-04T21:02:26.440Z,52.20
2019-04-04T21:04:54.420Z,52.20
2019-04-04T21:07:20.989Z,52.20
2019-04-04T21:09:47.395Z,52.20
2019-04-04T21:12:13.912Z,52.20
2019-04-04T21:14:41.232Z,52.10
2019-04-04T21:17:07.663Z,51.90
2019-04-04T21:19:34.091Z,52.10
2019-04-04T21:22:00.652Z,52.00
2019-04-04T21:24:27.111Z,52.10
2019-04-04T21:26:53.544Z,52.10
2019-04-04T21:29:19.855Z,52.00
2019-04-04T21:31:46.183Z,52.00
2019-04-04T21:34:12.488Z,52.00
2019-04-04T21:36:39.001Z,52.70
2019-04-04T21:39:06.509Z,51.90
2019-04-04T21:41:32.811Z,52.00
2019-04-04T21:44:08.772Z,52.00
2019-04-04T21:46:27.462Z,52.00
2019-04-04T21:48:53.877Z,52.00
2019-04-04T21:51:20.184Z,52.00
2019-04-04T21:53:46.719Z,52.00
2019-04-04T21:56:13.415Z,52.00
2019-04-04T21:58:39.830Z,51.90
2019-04-04T22:01:06.235Z,52.60
2019-04-04T22:03:32.538Z,51.80
2019-04-04T22:05:58.839Z,51.90
2019-04-04T22:08:25.177Z,51.90
2019-04-04T22:10:51.508Z,51.90
2019-04-04T22:13:17.913Z,51.80
2019-04-04T22:15:45.440Z,51.90
2019-04-04T22:18:11.955Z,51.90
2019-04-04T22:20:38.299Z,51.90
2019-04-04T22:23:04.824Z,52.00
2019-04-04T22:25:31.307Z,51.90
2019-04-04T22:27:57.956Z,52.00
2019-04-04T22:30:24.275Z,52.20
2019-04-04T22:32:50.852Z,52.30
2019-04-04T22:35:17.361Z,52.30
2019-04-04T22:37:43.895Z,52.30
2019-04-04T22:40:10.463Z,52.40
2019-04-04T22:42:36.883Z,52.50
2019-04-04T22:45:06.493Z,52.70
2019-04-04T22:47:32.815Z,52.70
2019-04-04T22:49:59.136Z,52.80
2019-04-04T22:52:25.438Z,52.90
2019-04-04T22:54:51.856Z,52.90
2019-04-04T22:57:18.401Z,52.70
2019-04-04T22:59:44.798Z,52.80
2019-04-04T23:02:11.211Z,52.90
2019-04-04T23:04:37.627Z,52.90
2019-04-04T23:07:04.156Z,53.00
2019-04-04T23:09:30.770Z,52.90
2019-04-04T23:11:57.084Z,52.90
2019-04-04T23:14:23.499Z,52.90
2019-04-04T23:16:49.809Z,52.90
2019-04-04T23:19:16.112Z,52.90
2019-04-04T23:21:42.528Z,52.90
2019-04-04T23:24:08.840Z,52.90
2019-04-04T23:26:35.147Z,53.00
2019-04-04T23:29:01.583Z,52.90
2019-04-04T23:31:27.884Z,53.10
2019-04-04T23:33:54.411Z,53.10
2019-04-04T23:36:20.847Z,53.10
2019-04-04T23:38:47.352Z,53.10
2019-04-04T23:41:13.781Z,53.10
2019-04-04T23:43:40.319Z,53.20
2019-04-04T23:46:06.637Z,53.20
2019-04-04T23:48:33.049Z,53.20
2019-04-04T23:50:59.379Z,53.10
2019-04-04T23:53:25.693Z,53.20
2019-04-04T23:55:52.115Z,53.30
2019-04-04T23:58:18.430Z,53.40
